createdAt,value
2023-04-25T04:05:00.638Z,11.56
2023-04-25T04:07:28.697Z,11.26
2023-04-25T04:09:59.050Z,11.40
2023-04-25T04:12:32.298Z,11.27
2023-04-25T04:14:59.639Z,11.35
2023-04-25T04:17:27.330Z,11.57
2023-04-25T04:19:56.045Z,11.50
2023-04-25T04:22:24.615Z,11.49
2023-04-25T04:24:55.670Z,11.59
2023-04-25T04:27:41.611Z,11.93
2023-04-25T04:30:24.957Z,11.90
2023-04-25T04:32:58.975Z,11.73
2023-04-25T04:35:26.929Z,11.74
2023-04-25T04:37:55.597Z,11.94
2023-04-25T04:40:24.205Z,11.99
2023-04-25T04:43:11.745Z,12.08
2023-04-25T04:46:05.309Z,12.31
2023-04-25T04:48:36.305Z,12.70
2023-04-25T04:51:22.102Z,12.52
2023-04-25T04:53:59.215Z,12.62
2023-04-25T04:56:49.888Z,12.85
2023-04-25T04:59:30.622Z,13.05
2023-04-25T05:02:27.644Z,12.93
2023-04-25T05:05:24.067Z,12.81
2023-04-25T05:08:20.985Z,12.64
2023-04-25T05:11:14.952Z,12.92
2023-04-25T05:14:01.006Z,13.04
2023-04-25T05:16:47.027Z,13.11
2023-04-25T05:19:40.695Z,13.25
2023-04-25T05:22:42.596Z,13.50
2023-04-25T05:25:22.996Z,13.79
2023-04-25T05:28:17.237Z,13.91
2023-04-25T05:31:01.755Z,14.29
2023-04-25T05:33:32.293Z,14.34
2023-04-25T05:36:02.354Z,14.41
2023-04-25T05:38:33.262Z,14.29
2023-04-25T05:41:08.445Z,14.36
2023-04-25T05:44:08.055Z,14.07
2023-04-25T05:46:41.911Z,14.14
2023-04-25T05:49:32.412Z,14.14
2023-04-25T05:52:18.913Z,13.95
2023-04-25T05:54:56.431Z,13.81
2023-04-25T05:57:26.683Z,14.02
2023-04-25T05:59:55.566Z,14.02
2023-04-25T06:02:27.466Z,13.92
2023-04-25T06:04:55.695Z,14.04
2023-04-25T06:07:25.771Z,14.25
2023-04-25T06:09:54.316Z,14.44
2023-04-25T06:12:21.976Z,14.50
2023-04-25T06:14:50.949Z,14.79
2023-04-25T06:17:18.460Z,14.76
2023-04-25T06:19:45.738Z,14.83
2023-04-25T06:22:13.754Z,14.91
2023-04-25T06:24:42.262Z,14.95
2023-04-25T06:27:09.646Z,14.88
2023-04-25T06:29:37.399Z,15.22
2023-04-25T06:32:05.242Z,15.05
2023-04-25T06:34:33.511Z,15.28
2023-04-25T06:37:01.135Z,15.01
2023-04-25T06:39:28.595Z,14.93
2023-04-25T06:41:56.676Z,15.43
2023-04-25T06:44:42.264Z,15.40
2023-04-25T06:47:11.524Z,15.47
2023-04-25T06:49:39.640Z,15.39
2023-04-25T06:52:07.017Z,15.64
2023-04-25T06:54:34.491Z,15.85
2023-04-25T06:57:20.135Z,15.82
2023-04-25T06:59:47.707Z,15.72
2023-04-25T07:02:15.498Z,15.95
2023-04-25T07:04:44.501Z,15.77
2023-04-25T07:07:11.949Z,15.79
2023-04-25T07:09:46.973Z,16.17
2023-04-25T07:12:14.432Z,16.28
2023-04-25T07:14:41.851Z,16.64
2023-04-25T07:17:10.765Z,16.60
2023-04-25T07:19:40.935Z,17.00
2023-04-25T07:22:09.892Z,16.57
2023-04-25T07:24:40.502Z,16.62
2023-04-25T07:27:08.860Z,16.29
2023-04-25T07:29:45.957Z,16.74
2023-04-25T07:32:14.965Z,16.91
2023-04-25T07:34:44.392Z,16.28
2023-04-25T07:37:12.093Z,16.68
2023-04-25T07:39:52.161Z,17.03
2023-04-25T07:42:19.514Z,17.17
2023-04-25T07:44:47.146Z,17.42
2023-04-25T07:47:17.094Z,17.56
2023-04-25T07:49:44.892Z,17.83
2023-04-25T07:52:12.929Z,18.13
2023-04-25T07:54:46.175Z,17.81
2023-04-25T07:57:20.498Z,18.27
2023-04-25T07:59:50.859Z,17.70
2023-04-25T08:02:19.671Z,18.07
2023-04-25T08:04:47.927Z,17.37
2023-04-25T08:07:18.558Z,17.33
2023-04-25T08:09:51.462Z,16.76
2023-04-25T08:12:25.959Z,17.60
2023-04-25T08:14:54.295Z,17.33
2023-04-25T08:17:23.290Z,17.67
2023-04-25T08:19:51.085Z,17.40
2023-04-25T08:22:25.728Z,17.24
2023-04-25T08:25:13.337Z,17.88
2023-04-25T08:27:42.668Z,17.61
2023-04-25T08:30:11.209Z,18.20
2023-04-25T08:32:40.195Z,17.64
2023-04-25T08:35:26.144Z,17.98
2023-04-25T08:37:54.463Z,18.63
2023-04-25T08:40:27.183Z,18.62
2023-04-25T08:43:12.462Z,18.85
2023-04-25T08:45:44.193Z,18.55
2023-04-25T08:48:18.760Z,17.87
2023-04-25T08:50:52.105Z,17.73
2023-04-25T08:53:29.719Z,18.10
2023-04-25T08:56:02.478Z,18.29
2023-04-25T08:58:32.069Z,18.28
2023-04-25T09:01:01.017Z,18.27
2023-04-25T09:03:31.994Z,18.06
2023-04-25T09:06:00.844Z,17.91
2023-04-25T09:08:28.270Z,17.96
2023-04-25T09:10:56.472Z,17.93
2023-04-25T09:13:28.841Z,17.23
2023-04-25T09:16:23.237Z,17.27
2023-04-25T09:19:38.186Z,17.77
2023-04-25T09:22:13.960Z,18.41
2023-04-25T09:24:47.029Z,18.64
2023-04-25T09:27:20.933Z,18.51
2023-04-25T09:29:59.292Z,18.22
2023-04-25T09:32:29.015Z,18.38
2023-04-25T09:34:59.079Z,18.36
2023-04-25T09:37:31.215Z,17.75
2023-04-25T09:40:19.589Z,18.22
2023-04-25T09:43:01.664Z,18.35
2023-04-25T09:45:32.243Z,18.16
2023-04-25T09:48:07.126Z,18.48
2023-04-25T09:50:37.764Z,18.18
2023-04-25T09:53:10.200Z,18.98
2023-04-25T09:55:53.891Z,18.84
2023-04-25T09:58:21.734Z,19.21
2023-04-25T10:00:49.256Z,19.36
2023-04-25T10:03:33.964Z,19.55
2023-04-25T10:06:27.384Z,19.04
2023-04-25T10:08:56.866Z,18.41
2023-04-25T10:11:27.575Z,18.76
2023-04-25T10:13:55.327Z,18.45
2023-04-25T10:16:23.515Z,19.10
2023-04-25T10:18:51.669Z,19.26
2023-04-25T10:21:19.048Z,19.29
2023-04-25T10:23:46.876Z,19.80
2023-04-25T10:26:15.392Z,20.27
2023-04-25T10:29:04.203Z,20.54
2023-04-25T10:31:32.539Z,20.61
2023-04-25T10:34:01.793Z,21.08
2023-04-25T10:36:33.219Z,20.62
2023-04-25T10:39:07.950Z,20.62
2023-04-25T10:41:56.169Z,20.25
2023-04-25T10:44:23.857Z,19.62
2023-04-25T10:46:51.902Z,20.62
2023-04-25T10:49:42.090Z,21.07
2023-04-25T10:52:16.422Z,21.08
2023-04-25T10:54:48.168Z,21.00
2023-04-25T10:57:34.520Z,21.27
2023-04-25T11:00:12.978Z,21.90
2023-04-25T11:02:50.957Z,22.00
2023-04-25T11:05:33.166Z,21.56
2023-04-25T11:08:08.212Z,21.38
2023-04-25T11:10:36.600Z,21.13
2023-04-25T11:13:05.051Z,21.62
2023-04-25T11:15:32.671Z,21.94
2023-04-25T11:18:00.234Z,21.92
2023-04-25T11:20:29.592Z,21.00
2023-04-25T11:23:00.180Z,21.03
2023-04-25T11:27:58.159Z,20.90
2023-04-25T11:30:27.459Z,21.39
2023-04-25T11:32:55.903Z,21.20
2023-04-25T11:35:24.439Z,21.72
2023-04-25T11:37:52.143Z,21.83
2023-04-25T11:40:19.529Z,21.37
2023-04-25T11:42:48.807Z,22.04
2023-04-25T11:45:16.487Z,21.55
2023-04-25T11:47:44.711Z,21.19
2023-04-25T11:50:12.225Z,21.19
2023-04-25T11:52:44.900Z,21.44
2023-04-25T11:55:17.480Z,21.27
2023-04-25T11:57:49.782Z,20.15
2023-04-25T12:00:20.190Z,20.46
2023-04-25T12:02:53.711Z,21.20
2023-04-25T12:07:55.805Z,22.14
2023-04-25T12:10:26.119Z,22.56
2023-04-25T12:12:53.720Z,22.65
2023-04-25T12:15:26.166Z,22.62
2023-04-25T12:17:58.571Z,22.00
2023-04-25T12:20:26.849Z,21.37
2023-04-25T12:22:54.387Z,21.15
2023-04-25T12:25:39.541Z,20.52
2023-04-25T12:28:13.868Z,21.58
2023-04-25T12:31:01.820Z,21.94
2023-04-25T12:33:35.485Z,22.42
2023-04-25T12:36:10.126Z,21.93
2023-04-25T12:38:42.674Z,22.68
2023-04-25T12:41:11.094Z,22.08
2023-04-25T12:43:39.381Z,22.61
2023-04-25T12:46:07.164Z,22.35
2023-04-25T12:48:35.185Z,23.02
2023-04-25T12:51:02.972Z,23.42
2023-04-25T12:53:32.684Z,23.29
2023-04-25T12:56:02.103Z,23.49
2023-04-25T12:58:30.388Z,24.11
2023-04-25T13:00:58.017Z,23.87
2023-04-25T13:03:26.488Z,24.00
2023-04-25T13:05:55.288Z,23.59
2023-04-25T13:08:22.563Z,23.83
2023-04-25T13:10:49.928Z,24.77
2023-04-25T13:13:17.852Z,24.62
2023-04-25T13:15:45.715Z,23.88
2023-04-25T13:18:13.803Z,23.23
2023-04-25T13:20:42.005Z,23.19
2023-04-25T13:23:10.879Z,23.36
2023-04-25T13:25:38.178Z,23.37
2023-04-25T13:28:05.784Z,22.35
2023-04-25T13:30:33.162Z,22.25
2023-04-25T13:33:04.340Z,22.11
2023-04-25T13:35:31.824Z,22.15
2023-04-25T13:37:59.036Z,22.10
2023-04-25T13:40:27.977Z,21.69
2023-04-25T13:42:56.374Z,21.86
2023-04-25T13:45:23.736Z,22.01
2023-04-25T13:47:51.279Z,21.70
2023-04-25T13:50:18.759Z,21.67
2023-04-25T13:52:46.612Z,20.99
2023-04-25T13:55:14.356Z,20.88
2023-04-25T13:57:41.736Z,20.71
2023-04-25T14:00:09.861Z,20.73
2023-04-25T14:02:37.915Z,20.03
2023-04-25T14:05:07.655Z,19.10
2023-04-25T14:07:35.912Z,19.12
2023-04-25T14:10:05.044Z,17.59
2023-04-25T14:12:33.588Z,16.59
2023-04-25T14:15:01.090Z,15.77
2023-04-25T14:17:28.485Z,15.22
2023-04-25T14:19:55.965Z,15.12
2023-04-25T14:22:23.357Z,14.93
2023-04-25T14:24:51.054Z,15.10
2023-04-25T14:27:18.794Z,14.97
2023-04-25T14:29:46.107Z,14.88
2023-04-25T14:32:13.834Z,14.81
2023-04-25T14:34:41.635Z,14.63
2023-04-25T14:37:09.464Z,14.41
2023-04-25T14:39:37.707Z,14.78
2023-04-25T14:42:05.051Z,14.97
2023-04-25T14:44:32.411Z,16.91
2023-04-25T14:47:00.559Z,21.38
2023-04-25T14:49:29.188Z,27.54
2023-04-25T14:51:57.714Z,31.75
2023-04-25T14:54:25.227Z,34.31
2023-04-25T14:56:52.624Z,37.90
2023-04-25T14:59:21.424Z,38.73
2023-04-25T15:01:49.519Z,40.53
2023-04-25T15:04:18.363Z,40.06
2023-04-25T15:06:45.786Z,41.09
2023-04-25T15:09:13.077Z,38.76
2023-04-25T15:11:40.789Z,38.44
2023-04-25T15:14:08.704Z,38.18
2023-04-25T15:16:36.255Z,32.75
2023-04-25T15:19:06.876Z,28.03
2023-04-25T15:21:34.307Z,30.86
2023-04-25T15:24:02.218Z,35.31
2023-04-25T15:26:29.774Z,33.08
2023-04-25T15:28:57.175Z,33.21
2023-04-25T15:31:24.778Z,36.61
2023-04-25T15:33:52.420Z,37.59
2023-04-25T15:36:22.349Z,36.56
2023-04-25T15:38:49.712Z,36.50
2023-04-25T15:41:18.386Z,36.88
2023-04-25T15:43:49.012Z,38.02
2023-04-25T15:46:16.822Z,39.61
2023-04-25T15:48:44.313Z,37.13
2023-04-25T15:51:12.521Z,36.55
2023-04-25T15:53:39.842Z,37.49
2023-04-25T15:56:07.957Z,38.61
2023-04-25T15:58:36.205Z,37.06
2023-04-25T16:01:04.953Z,36.21
2023-04-25T16:03:35.606Z,34.75
2023-04-25T16:06:04.849Z,34.07
2023-04-25T16:08:35.738Z,34.73
2023-04-25T16:11:03.475Z,35.57
2023-04-25T16:13:31.046Z,36.28
2023-04-25T16:15:59.465Z,33.63
2023-04-25T16:18:26.960Z,33.34
2023-04-25T16:20:54.817Z,32.79
2023-04-25T16:23:22.818Z,34.27
2023-04-25T16:25:50.681Z,33.94
2023-04-25T16:28:18.106Z,32.56
2023-04-25T16:30:46.183Z,32.97
2023-04-25T16:33:13.789Z,32.73
2023-04-25T16:35:41.148Z,34.10
2023-04-25T16:38:08.820Z,32.62
2023-04-25T16:40:36.202Z,32.80
2023-04-25T16:43:03.405Z,31.56
2023-04-25T16:45:31.072Z,31.80
2023-04-25T16:47:58.618Z,32.82
2023-04-25T16:50:27.007Z,30.57
2023-04-25T16:52:54.744Z,31.43
2023-04-25T16:55:22.059Z,30.31
2023-04-25T16:57:49.382Z,30.68
2023-04-25T17:00:18.175Z,28.95
2023-04-25T17:02:45.817Z,25.81
2023-04-25T17:05:14.216Z,22.25
2023-04-25T17:07:41.703Z,20.25
2023-04-25T17:10:09.654Z,20.49
2023-04-25T17:12:37.482Z,19.69
2023-04-25T17:15:05.550Z,19.31
2023-04-25T17:17:33.806Z,19.04
2023-04-25T17:20:01.186Z,18.64
2023-04-25T17:22:28.642Z,17.85
2023-04-25T17:24:56.513Z,17.58
2023-04-25T17:27:24.021Z,17.74
2023-04-25T17:29:51.758Z,17.59
2023-04-25T17:32:19.104Z,17.27
2023-04-25T17:34:48.032Z,16.99
2023-04-25T17:37:16.796Z,16.68
2023-04-25T17:39:45.126Z,16.82
2023-04-25T17:42:13.026Z,16.78
2023-04-25T17:44:43.849Z,16.76
2023-04-25T17:47:11.792Z,16.53
2023-04-25T17:49:39.535Z,16.34
2023-04-25T17:52:07.409Z,16.42
2023-04-25T17:54:34.856Z,15.90
2023-04-25T17:57:02.537Z,16.00
2023-04-25T17:59:29.802Z,16.25
2023-04-25T18:01:59.867Z,16.42
2023-04-25T18:04:28.076Z,16.33
2023-04-25T18:06:56.002Z,16.04
2023-04-25T18:09:23.850Z,16.10
2023-04-25T18:11:54.527Z,16.17
2023-04-25T18:14:22.755Z,15.95
2023-04-25T18:16:55.356Z,16.13
2023-04-25T18:19:23.454Z,15.97
2023-04-25T18:21:54.230Z,16.00
2023-04-25T18:24:24.299Z,15.95
2023-04-25T18:26:52.128Z,15.68
2023-04-25T18:29:32.231Z,15.90
2023-04-25T18:32:01.298Z,15.42
2023-04-25T18:34:29.388Z,15.53
2023-04-25T18:36:57.918Z,15.02
2023-04-25T18:39:27.245Z,15.00
2023-04-25T18:42:03.407Z,14.76
2023-04-25T18:44:39.696Z,14.83
2023-04-25T18:47:10.865Z,14.76
2023-04-25T18:49:38.539Z,14.75
2023-04-25T18:52:10.564Z,14.95
2023-04-25T18:54:39.389Z,14.64
2023-04-25T18:57:06.966Z,14.87
2023-04-25T18:59:34.409Z,14.88
2023-04-25T19:02:03.021Z,14.88
2023-04-25T19:04:32.300Z,14.97
2023-04-25T19:07:00.427Z,14.89
2023-04-25T19:09:28.265Z,14.64
2023-04-25T19:11:55.659Z,14.90
2023-04-25T19:14:23.487Z,14.62
2023-04-25T19:16:51.572Z,14.56
2023-04-25T19:19:18.863Z,14.64
2023-04-25T19:21:46.299Z,14.39
2023-04-25T19:24:14.539Z,14.44
2023-04-25T19:26:42.061Z,14.51
2023-04-25T19:29:15.128Z,14.14
2023-04-25T19:31:44.680Z,14.36
2023-04-25T19:34:13.086Z,13.80
2023-04-25T19:36:42.528Z,13.67
2023-04-25T19:39:10.899Z,13.80
2023-04-25T19:41:39.299Z,13.97
2023-04-25T19:44:09.054Z,14.04
2023-04-25T19:46:37.157Z,13.67
2023-04-25T19:49:09.287Z,14.24
2023-04-25T19:51:37.290Z,14.38
2023-04-25T19:54:05.711Z,14.11
2023-04-25T19:56:33.889Z,13.93
2023-04-25T19:59:01.723Z,13.77
2023-04-25T20:01:30.398Z,13.61
2023-04-25T20:03:59.172Z,13.51
2023-04-25T20:06:27.376Z,13.25
2023-04-25T20:08:56.467Z,13.06
2023-04-25T20:11:23.772Z,12.90
2023-04-25T20:13:52.331Z,12.57
2023-04-25T20:16:22.013Z,12.46
2023-04-25T20:18:50.354Z,12.64
2023-04-25T20:21:19.686Z,12.31
2023-04-25T20:23:47.467Z,12.44
2023-04-25T20:26:15.792Z,12.27
2023-04-25T20:28:43.152Z,12.15
2023-04-25T20:31:11.594Z,12.23
2023-04-25T20:33:39.697Z,12.37
2023-04-25T20:36:07.710Z,12.41
2023-04-25T20:38:35.176Z,12.35
2023-04-25T20:41:03.704Z,12.57
2023-04-25T20:43:31.698Z,12.37
2023-04-25T20:46:00.630Z,12.61
2023-04-25T20:48:28.033Z,12.56
2023-04-25T20:50:56.315Z,12.49
2023-04-25T20:53:24.314Z,12.36
2023-04-25T20:55:52.328Z,12.72
2023-04-25T20:58:20.709Z,12.73
2023-04-25T21:00:48.992Z,12.71
2023-04-25T21:03:16.843Z,12.54
2023-04-25T21:05:44.709Z,12.39
2023-04-25T21:08:12.671Z,12.31
2023-04-25T21:10:41.139Z,12.21
2023-04-25T21:13:09.376Z,12.34
2023-04-25T21:15:36.713Z,12.39
2023-04-25T21:18:04.734Z,12.51
2023-04-25T21:20:32.869Z,12.51
2023-04-25T21:23:00.604Z,12.44
2023-04-25T21:25:31.873Z,12.59
2023-04-25T21:28:02.169Z,12.87
2023-04-25T21:30:29.992Z,12.87
2023-04-25T21:32:57.495Z,12.54
2023-04-25T21:35:24.931Z,12.52
2023-04-25T21:37:52.492Z,12.28
2023-04-25T21:40:19.974Z,12.10
2023-04-25T21:42:53.157Z,11.94
2023-04-25T21:45:21.353Z,11.80
2023-04-25T21:47:48.989Z,11.74
2023-04-25T21:50:17.121Z,11.92
2023-04-25T21:52:44.446Z,11.70
2023-04-25T21:55:11.886Z,11.69
